Startpagina
METAR-TAF:

METAR-TAF

Vliegvelden :

Internationale luchthaven Changi

Singapore, Singapore

breedte: 01-22N, lengte: 103-59E, hoogte: 5 m

Actueel weer

Dit bericht is 20 minuten geleden gemaakt, om 00:00 UTC
Wind 1 kt uit variabele richting
Temperatuur 28°C
Vochtigheid 79%
Druk 1012 hPa
Zicht 10 km of meer
Weinig wolken op 1800 ft
Weinig wolken op 2000 ft, Cumulonimbus.
Verspreide wolken op 16000 ft
Gebroken wolken op 30000 ft

METAR: WSSS 010000Z VRB01KT 9999 FEW018 FEW020CB SCT160 BKN300 28/24 Q1012 NOSIG

Tijdstip: 08:20 (00:20 UTC)

Verwachting

Dit bericht is 1 uur en het 20 minuten geleden gemaakt, om 23:00 UTC
Verwachting geldig van 01 om 00 UTC tot 02 om 06 UTC
Wind 7 kt uit het zuidzuidoosten
Zicht 10 km of meer
Weinig wolken op 1500 ft
Verspreide wolken op 2000 ft

TAF: WSSS 312300Z 0100/0206 16007KT 9999 FEW015 SCT020

Waarnemingen en weersverwachtingen van meer dan 4000 vliegvelden (METAR en TAF).

De beschikbare stations zijn de gele en rode punten op de kaart.

Ga met uw muis naar het station om de naam te zien.

Klik dan om waarnemingen en weersverwachtingen te zien.

kaart wijzigen: klik op de groene knoppen met een zwart kruis om in te zoomen, op de groene knop met een streepje om uit te zoomen of op de groene pijlen voor aangrenzende kaarten.


METAR-TAF: